createdAt,value
2023-04-14T00:00:52.229Z,84.72
2023-04-14T00:03:20.723Z,84.35
2023-04-14T00:05:49.181Z,85.39
2023-04-14T00:08:17.516Z,85.53
2023-04-14T00:10:45.852Z,85.95
2023-04-14T00:13:14.172Z,85.22
2023-04-14T00:15:43.462Z,84.25
2023-04-14T00:18:11.857Z,84.65
2023-04-14T00:20:40.215Z,84.91
2023-04-14T00:23:08.571Z,85.22
2023-04-14T00:25:36.879Z,83.61
2023-04-14T00:28:05.189Z,83.13
2023-04-14T00:30:33.514Z,84.75
2023-04-14T00:33:02.067Z,84.24
2023-04-14T00:35:30.530Z,82.58
2023-04-14T00:37:59.488Z,82.96
2023-04-14T00:40:27.904Z,82.74
2023-04-14T00:42:56.317Z,82.54
2023-04-14T00:45:26.340Z,84.36
2023-04-14T00:47:55.968Z,83.70
2023-04-14T00:50:24.455Z,84.80
2023-04-14T00:52:54.470Z,83.64
2023-04-14T00:55:22.870Z,84.31
2023-04-14T00:57:51.494Z,84.69
2023-04-14T01:00:20.656Z,84.02
2023-04-14T01:02:49.223Z,82.83
2023-04-14T01:05:18.060Z,82.27
2023-04-14T01:07:49.263Z,81.55
2023-04-14T01:10:18.286Z,81.17
2023-04-14T01:13:15.182Z,80.04
2023-04-14T01:15:53.768Z,79.22
2023-04-14T01:19:09.847Z,80.26
2023-04-14T01:21:43.448Z,80.17
2023-04-14T01:24:14.751Z,79.54
2023-04-14T01:26:44.481Z,79.90
2023-04-14T01:29:34.135Z,78.38
2023-04-14T01:32:07.349Z,79.88
2023-04-14T01:34:47.500Z,78.37
2023-04-14T01:37:26.370Z,77.86
2023-04-14T01:39:58.091Z,77.74
2023-04-14T01:42:31.692Z,78.31
2023-04-14T01:45:16.811Z,77.29
2023-04-14T01:47:47.650Z,76.27
2023-04-14T01:50:17.951Z,76.08
2023-04-14T01:52:53.875Z,76.51
2023-04-14T01:55:24.732Z,77.07
2023-04-14T01:57:55.481Z,77.10
2023-04-14T02:00:25.708Z,76.20
2023-04-14T02:02:56.541Z,77.53
2023-04-14T02:05:26.608Z,77.40
2023-04-14T02:07:56.736Z,75.88
2023-04-14T02:10:26.074Z,73.43
2023-04-14T02:12:58.151Z,75.25
2023-04-14T02:15:29.487Z,76.21
2023-04-14T02:17:59.575Z,72.38
2023-04-14T02:20:30.011Z,71.34
2023-04-14T02:22:58.479Z,71.29
2023-04-14T02:25:32.188Z,71.33
2023-04-14T02:28:07.843Z,71.98
2023-04-14T02:30:50.068Z,68.56
2023-04-14T02:33:23.173Z,68.98
2023-04-14T02:36:04.684Z,68.57
2023-04-14T02:38:40.619Z,69.88
2023-04-14T02:41:15.641Z,68.84
2023-04-14T02:43:51.562Z,69.47
2023-04-14T02:46:24.082Z,68.70
2023-04-14T02:48:54.976Z,69.73
2023-04-14T02:51:25.197Z,68.49
2023-04-14T02:53:53.772Z,69.18
2023-04-14T02:56:22.978Z,66.96
2023-04-14T02:58:52.533Z,67.41
2023-04-14T03:01:21.306Z,63.92
2023-04-14T03:03:51.099Z,64.34
2023-04-14T03:06:19.493Z,64.54
2023-04-14T03:08:49.371Z,65.71
2023-04-14T03:11:19.272Z,66.66
2023-04-14T03:13:50.164Z,65.08
2023-04-14T03:16:25.159Z,66.97
2023-04-14T03:18:55.412Z,64.01
2023-04-14T03:21:25.207Z,63.84
2023-04-14T03:23:56.804Z,63.67
2023-04-14T03:26:29.483Z,63.29
2023-04-14T03:29:00.146Z,64.80
2023-04-14T03:31:38.042Z,62.75
2023-04-14T03:34:08.118Z,65.17
2023-04-14T03:36:37.797Z,63.37
2023-04-14T03:39:07.148Z,64.75
2023-04-14T03:41:39.231Z,62.81
2023-04-14T03:44:12.143Z,62.36
2023-04-14T03:46:40.573Z,61.57
2023-04-14T03:49:14.205Z,62.87
2023-04-14T03:51:45.164Z,62.36
2023-04-14T03:54:16.782Z,62.25
2023-04-14T03:56:49.212Z,62.59
2023-04-14T03:59:20.395Z,64.48
2023-04-14T04:01:50.225Z,64.23
2023-04-14T04:04:19.826Z,63.22
2023-04-14T04:06:50.511Z,62.83
2023-04-14T04:09:20.603Z,62.46
2023-04-14T04:11:51.284Z,62.17
2023-04-14T04:14:22.401Z,61.59
2023-04-14T04:16:52.088Z,62.91
2023-04-14T04:19:23.230Z,62.04
2023-04-14T04:21:54.737Z,62.41
2023-04-14T04:24:27.100Z,61.10
2023-04-14T04:26:56.733Z,61.94
2023-04-14T04:29:25.620Z,59.24
2023-04-14T04:31:55.370Z,59.03
2023-04-14T04:34:26.326Z,60.47
2023-04-14T04:36:55.687Z,60.99
2023-04-14T04:39:24.386Z,59.15
2023-04-14T04:41:52.912Z,59.02
2023-04-14T04:44:21.407Z,61.51
2023-04-14T04:46:57.334Z,60.26
2023-04-14T04:49:25.961Z,58.20
2023-04-14T04:51:54.532Z,57.94
2023-04-14T04:54:23.018Z,59.25
2023-04-14T04:56:51.520Z,59.47
2023-04-14T04:59:19.856Z,56.67
2023-04-14T05:01:48.451Z,56.86
2023-04-14T05:04:17.456Z,57.37
2023-04-14T05:06:46.041Z,57.69
2023-04-14T05:09:14.373Z,57.51
2023-04-14T05:11:42.988Z,58.79
2023-04-14T05:14:11.411Z,55.86
2023-04-14T05:16:39.734Z,56.99
2023-04-14T05:19:08.102Z,56.83
2023-04-14T05:21:36.780Z,56.40
2023-04-14T05:24:06.301Z,57.03
2023-04-14T05:29:05.737Z,53.88
2023-04-14T05:31:34.189Z,54.33
2023-04-14T05:34:02.876Z,54.40
2023-04-14T05:36:32.249Z,55.56
2023-04-14T05:39:01.096Z,55.61
2023-04-14T05:41:29.482Z,53.39
2023-04-14T05:43:57.822Z,55.66
2023-04-14T05:46:26.256Z,55.96
2023-04-14T05:48:54.728Z,52.94
2023-04-14T05:51:23.053Z,54.30
2023-04-14T05:53:51.434Z,55.12
2023-04-14T05:56:19.838Z,56.18
2023-04-14T05:58:48.601Z,56.79
2023-04-14T06:01:17.440Z,56.00
2023-04-14T06:03:46.033Z,55.32
2023-04-14T06:06:14.709Z,54.78
2023-04-14T06:08:43.053Z,56.44
2023-04-14T06:11:11.554Z,56.01
2023-04-14T06:13:39.879Z,56.73
2023-04-14T06:16:08.729Z,55.21
2023-04-14T06:18:37.301Z,56.59
2023-04-14T06:21:05.853Z,55.45
2023-04-14T06:23:34.320Z,57.25
2023-04-14T06:26:02.702Z,52.64
2023-04-14T06:28:31.387Z,55.55
2023-04-14T06:31:01.306Z,56.73
2023-04-14T06:33:29.657Z,57.49
2023-04-14T06:35:58.085Z,55.35
2023-04-14T06:38:27.619Z,54.98
2023-04-14T06:40:55.946Z,56.01
2023-04-14T06:43:24.269Z,56.54
2023-04-14T06:45:52.797Z,56.26
2023-04-14T06:48:21.246Z,54.81
2023-04-14T06:50:57.336Z,55.46
2023-04-14T06:53:26.815Z,56.63
2023-04-14T06:56:01.460Z,57.51
2023-04-14T06:58:30.978Z,56.60
2023-04-14T07:01:03.800Z,59.83
2023-04-14T07:03:32.570Z,59.22
2023-04-14T07:06:09.237Z,58.56
2023-04-14T07:08:38.301Z,57.75
2023-04-14T07:11:09.644Z,57.40
2023-04-14T07:13:39.361Z,55.86
2023-04-14T07:16:09.081Z,55.79
2023-04-14T07:18:37.552Z,53.70
2023-04-14T07:21:06.014Z,53.33
2023-04-14T07:23:34.637Z,53.20
2023-04-14T07:26:03.056Z,53.47
2023-04-14T07:28:31.469Z,55.38
2023-04-14T07:30:59.915Z,53.69
2023-04-14T07:33:32.097Z,52.54
2023-04-14T07:36:03.425Z,55.38
2023-04-14T07:38:35.651Z,52.83
2023-04-14T07:41:08.233Z,55.56
2023-04-14T07:43:36.758Z,55.72
2023-04-14T07:46:06.633Z,57.06
2023-04-14T07:48:39.502Z,53.57
2023-04-14T07:51:08.626Z,52.70
2023-04-14T07:53:41.413Z,53.09
2023-04-14T07:56:10.420Z,52.99
2023-04-14T07:58:38.847Z,55.89
2023-04-14T08:01:07.524Z,55.11
2023-04-14T08:03:38.433Z,57.41
2023-04-14T08:06:08.427Z,59.89
2023-04-14T08:08:37.696Z,57.67
2023-04-14T08:11:06.141Z,53.30
2023-04-14T08:13:34.518Z,52.63
2023-04-14T08:16:02.953Z,52.37
2023-04-14T08:18:31.669Z,51.27
2023-04-14T08:21:00.099Z,50.47
2023-04-14T08:23:28.457Z,50.35
2023-04-14T08:25:57.520Z,50.44
2023-04-14T08:28:25.889Z,50.79
2023-04-14T08:30:54.312Z,49.77
2023-04-14T08:33:22.723Z,49.12
2023-04-14T08:35:58.435Z,47.51
2023-04-14T08:38:29.664Z,47.93
2023-04-14T08:40:58.348Z,50.14
2023-04-14T08:43:26.777Z,50.12
2023-04-14T08:45:56.878Z,57.64
2023-04-14T08:48:31.705Z,51.49
2023-04-14T08:51:19.834Z,51.63
2023-04-14T08:53:50.060Z,50.40
2023-04-14T08:56:22.438Z,50.82
2023-04-14T08:58:51.787Z,50.65
2023-04-14T09:01:21.035Z,49.85
2023-04-14T09:03:50.149Z,52.00
2023-04-14T09:06:19.695Z,52.06
2023-04-14T09:08:48.237Z,51.65
2023-04-14T09:11:17.773Z,53.00
2023-04-14T09:13:46.606Z,52.18
2023-04-14T09:16:18.294Z,53.05
2023-04-14T09:18:47.974Z,51.65
2023-04-14T09:21:30.149Z,52.45
2023-04-14T09:24:10.457Z,48.99
2023-04-14T09:26:40.217Z,50.83
2023-04-14T09:29:08.569Z,50.76
2023-04-14T09:31:38.078Z,52.91
2023-04-14T09:34:15.904Z,51.98
2023-04-14T09:37:00.470Z,52.22
2023-04-14T09:39:29.788Z,50.72
2023-04-14T09:41:58.299Z,50.29
2023-04-14T09:44:26.863Z,51.05
2023-04-14T09:47:06.770Z,51.80
2023-04-14T09:49:35.669Z,51.67
2023-04-14T09:52:09.568Z,52.15
2023-04-14T09:54:41.063Z,52.47
2023-04-14T09:57:09.789Z,52.17
2023-04-14T09:59:39.676Z,51.71
2023-04-14T10:02:11.496Z,52.08
2023-04-14T10:04:40.030Z,53.08
2023-04-14T10:07:09.120Z,54.10
2023-04-14T10:09:41.701Z,54.29
2023-04-14T10:12:11.419Z,54.93
2023-04-14T10:14:43.521Z,57.01
2023-04-14T10:17:12.832Z,58.26
2023-04-14T10:19:41.713Z,59.27
2023-04-14T10:22:10.660Z,59.89
2023-04-14T10:24:39.077Z,60.36
2023-04-14T10:27:07.833Z,61.11
2023-04-14T10:29:36.305Z,60.79
2023-04-14T10:32:09.005Z,60.88
2023-04-14T10:34:42.651Z,60.76
2023-04-14T10:37:17.929Z,60.38
2023-04-14T10:39:57.259Z,61.10
2023-04-14T10:42:29.232Z,59.73
2023-04-14T10:45:08.603Z,60.54
2023-04-14T10:47:42.026Z,60.41
2023-04-14T10:50:21.609Z,60.81
2023-04-14T10:52:57.296Z,61.06
2023-04-14T10:55:29.409Z,59.69
2023-04-14T10:58:07.652Z,59.35
2023-04-14T11:00:40.191Z,58.93
2023-04-14T11:03:14.044Z,59.70
2023-04-14T11:05:49.955Z,59.81
2023-04-14T11:08:29.013Z,60.73
2023-04-14T11:11:05.741Z,60.64
2023-04-14T11:13:35.779Z,60.00
2023-04-14T11:16:08.888Z,59.66
2023-04-14T11:18:46.518Z,59.22
2023-04-14T11:21:18.149Z,60.08
2023-04-14T11:23:46.543Z,60.45
2023-04-14T11:26:15.045Z,60.05
2023-04-14T11:28:45.453Z,59.45
2023-04-14T11:31:16.691Z,61.90
2023-04-14T11:33:45.934Z,64.32
2023-04-14T11:36:14.465Z,64.27
2023-04-14T11:38:44.629Z,62.62
2023-04-14T11:41:16.863Z,62.49
2023-04-14T11:43:47.621Z,61.66
2023-04-14T11:46:19.007Z,62.39
2023-04-14T11:48:47.386Z,63.12
2023-04-14T11:51:16.011Z,63.77
2023-04-14T11:53:44.334Z,63.53
2023-04-14T11:56:13.831Z,63.99
2023-04-14T11:58:42.375Z,63.82
2023-04-14T12:01:15.330Z,64.10
2023-04-14T12:03:44.681Z,65.80
2023-04-14T12:06:13.138Z,66.86
2023-04-14T12:08:41.707Z,67.59
2023-04-14T12:11:15.477Z,67.52
2023-04-14T12:13:48.276Z,67.75
2023-04-14T12:16:18.056Z,67.55
2023-04-14T12:18:46.801Z,68.02
2023-04-14T12:21:20.571Z,68.13
2023-04-14T12:23:50.016Z,67.48
2023-04-14T12:26:19.018Z,66.04
2023-04-14T12:28:48.130Z,64.97
2023-04-14T12:31:16.918Z,64.29
2023-04-14T12:33:45.885Z,64.15
2023-04-14T12:36:15.017Z,64.92
2023-04-14T12:38:43.769Z,65.06
2023-04-14T12:41:12.163Z,65.35
2023-04-14T12:43:42.229Z,64.88
2023-04-14T12:46:10.853Z,66.25
2023-04-14T12:48:40.946Z,67.27
2023-04-14T12:51:11.728Z,68.35
2023-04-14T12:53:42.181Z,69.66
2023-04-14T12:56:14.178Z,70.83
2023-04-14T12:58:44.616Z,71.98
2023-04-14T13:01:13.982Z,71.79
2023-04-14T13:03:47.302Z,71.40
2023-04-14T13:06:17.712Z,71.93
2023-04-14T13:08:53.498Z,72.38
2023-04-14T13:11:24.321Z,71.53
2023-04-14T13:13:56.882Z,71.23
2023-04-14T13:16:26.418Z,70.76
2023-04-14T13:18:56.072Z,71.53
2023-04-14T13:21:24.529Z,71.30
2023-04-14T13:23:52.898Z,72.23
2023-04-14T13:26:21.726Z,72.13
2023-04-14T13:28:51.685Z,71.88
2023-04-14T13:31:20.126Z,71.65
2023-04-14T13:33:48.621Z,71.20
2023-04-14T13:36:17.829Z,70.91
2023-04-14T13:38:46.185Z,70.93
2023-04-14T13:41:16.246Z,71.08
2023-04-14T13:43:44.593Z,71.55
2023-04-14T13:46:13.007Z,71.61
2023-04-14T13:48:41.386Z,71.20
2023-04-14T13:51:09.982Z,71.86
2023-04-14T13:53:40.508Z,72.86
2023-04-14T13:56:08.950Z,73.88
2023-04-14T13:58:39.425Z,72.91
2023-04-14T14:01:12.216Z,74.72
2023-04-14T14:03:44.280Z,74.30
2023-04-14T14:06:12.952Z,74.61
2023-04-14T14:08:43.502Z,73.86
2023-04-14T14:11:12.506Z,73.71
2023-04-14T14:13:41.209Z,74.19
2023-04-14T14:16:10.670Z,74.30
2023-04-14T14:18:39.405Z,74.46
2023-04-14T14:21:07.802Z,74.96
2023-04-14T14:23:36.165Z,75.28
2023-04-14T14:26:04.649Z,75.33
2023-04-14T14:28:33.433Z,75.29
2023-04-14T14:31:01.943Z,75.52
2023-04-14T14:33:30.340Z,75.89
2023-04-14T14:35:58.750Z,75.98
2023-04-14T14:38:27.323Z,76.81
2023-04-14T14:40:55.719Z,76.74
2023-04-14T14:43:24.703Z,77.09
2023-04-14T14:45:53.071Z,77.69
2023-04-14T14:48:22.484Z,78.21
2023-04-14T14:50:50.818Z,78.79
2023-04-14T14:53:19.134Z,79.07
2023-04-14T14:55:47.517Z,78.17
2023-04-14T14:58:15.892Z,78.62
2023-04-14T15:00:44.277Z,79.62
2023-04-14T15:03:13.087Z,79.03
2023-04-14T15:05:41.729Z,79.96
2023-04-14T15:08:10.682Z,79.41
2023-04-14T15:10:39.052Z,79.34
2023-04-14T15:13:08.001Z,79.10
2023-04-14T15:15:36.775Z,78.89
2023-04-14T15:18:06.343Z,78.53
2023-04-14T15:20:34.705Z,78.19
2023-04-14T15:23:03.120Z,77.32
2023-04-14T15:25:31.979Z,77.92
2023-04-14T15:28:00.339Z,77.83
2023-04-14T15:30:28.954Z,77.96
2023-04-14T15:32:57.329Z,80.09
2023-04-14T15:35:27.383Z,81.18
2023-04-14T15:37:55.859Z,80.16
2023-04-14T15:40:24.264Z,79.27
2023-04-14T15:42:52.605Z,79.17
2023-04-14T15:45:21.028Z,79.44
2023-04-14T15:47:49.897Z,80.33
2023-04-14T15:50:19.704Z,79.47
2023-04-14T15:52:48.047Z,78.18
2023-04-14T15:55:16.493Z,76.33
2023-04-14T15:57:44.865Z,77.31
2023-04-14T16:00:13.787Z,78.37
2023-04-14T16:02:43.176Z,78.60
2023-04-14T16:05:12.130Z,77.36
2023-04-14T16:07:41.016Z,77.68
2023-04-14T16:10:09.694Z,77.88
2023-04-14T16:12:38.070Z,77.37
2023-04-14T16:15:10.600Z,75.43
2023-04-14T16:17:39.044Z,77.26
2023-04-14T16:20:07.788Z,74.96
2023-04-14T16:22:36.363Z,77.05
2023-04-14T16:25:05.461Z,77.65
2023-04-14T16:27:34.758Z,79.25
2023-04-14T16:30:04.581Z,78.85
2023-04-14T16:32:32.989Z,78.99
2023-04-14T16:35:02.039Z,77.09
2023-04-14T16:37:30.437Z,78.51
2023-04-14T16:39:59.098Z,78.59
2023-04-14T16:42:28.379Z,78.40
2023-04-14T16:44:57.303Z,79.13
2023-04-14T16:47:25.722Z,79.68
2023-04-14T16:49:54.188Z,78.27
2023-04-14T16:52:22.916Z,78.44
2023-04-14T16:54:51.312Z,79.06
2023-04-14T16:57:19.637Z,78.45
2023-04-14T16:59:49.041Z,78.14
2023-04-14T17:02:17.523Z,78.09
2023-04-14T17:04:46.113Z,77.53
2023-04-14T17:07:14.636Z,77.43
2023-04-14T17:09:43.757Z,78.14
2023-04-14T17:12:12.310Z,79.78
2023-04-14T17:14:40.737Z,79.58
2023-04-14T17:17:09.148Z,78.75
2023-04-14T17:19:37.470Z,78.98
2023-04-14T17:22:05.828Z,80.34
2023-04-14T17:24:34.604Z,80.96
2023-04-14T17:27:03.222Z,81.68
2023-04-14T17:29:31.585Z,80.70
2023-04-14T17:32:00.441Z,80.30
2023-04-14T17:34:30.222Z,80.00
2023-04-14T17:36:59.664Z,80.00
2023-04-14T17:39:28.190Z,81.35
2023-04-14T17:41:58.817Z,81.89
2023-04-14T17:44:33.679Z,83.82
2023-04-14T17:47:04.142Z,83.52
2023-04-14T17:49:33.456Z,84.06
2023-04-14T17:52:02.255Z,84.53
2023-04-14T17:54:31.107Z,85.30
2023-04-14T17:56:59.529Z,86.81
2023-04-14T17:59:28.080Z,86.07
2023-04-14T18:01:56.548Z,85.99
2023-04-14T18:04:25.686Z,87.04
2023-04-14T18:06:54.591Z,87.19
2023-04-14T18:09:23.107Z,87.77
2023-04-14T18:11:51.507Z,87.28
2023-04-14T18:14:20.575Z,85.57
2023-04-14T18:16:48.979Z,85.08
2023-04-14T18:19:17.354Z,85.44
2023-04-14T18:21:46.140Z,86.58
2023-04-14T18:26:46.228Z,85.44
2023-04-14T18:29:14.623Z,84.79
2023-04-14T18:31:43.580Z,84.84
2023-04-14T18:34:13.500Z,83.68
2023-04-14T18:36:41.986Z,83.33
2023-04-14T18:39:10.362Z,84.59
2023-04-14T18:41:38.754Z,84.39
2023-04-14T18:44:07.639Z,85.00
2023-04-14T18:46:36.775Z,85.44
2023-04-14T18:49:06.654Z,85.73
2023-04-14T18:51:35.073Z,85.03
2023-04-14T18:54:03.598Z,84.88
2023-04-14T18:56:32.498Z,84.38
2023-04-14T18:59:01.586Z,83.19
2023-04-14T19:01:30.249Z,81.54
2023-04-14T19:03:58.873Z,81.61
2023-04-14T19:06:27.645Z,82.37
2023-04-14T19:08:56.027Z,82.50
2023-04-14T19:11:24.602Z,83.53
2023-04-14T19:13:54.944Z,83.54
2023-04-14T19:16:23.577Z,83.94
2023-04-14T19:18:53.302Z,83.67
2023-04-14T19:21:21.733Z,83.80
2023-04-14T19:23:51.879Z,82.97
2023-04-14T19:26:20.377Z,81.76
2023-04-14T19:28:48.925Z,81.64
2023-04-14T19:31:22.121Z,82.09
2023-04-14T19:33:50.597Z,83.59
2023-04-14T19:36:19.430Z,83.49
2023-04-14T19:38:48.130Z,83.64
2023-04-14T19:41:16.677Z,84.62
2023-04-14T19:43:46.493Z,85.55
2023-04-14T19:46:14.857Z,86.43
2023-04-14T19:48:43.323Z,85.99
2023-04-14T19:51:12.272Z,86.24
2023-04-14T19:53:40.777Z,84.93
2023-04-14T19:56:09.679Z,85.12
2023-04-14T19:58:38.058Z,86.25
2023-04-14T20:01:06.654Z,86.57
2023-04-14T20:03:35.243Z,85.97
2023-04-14T20:06:04.163Z,85.36
2023-04-14T20:08:33.157Z,85.44
2023-04-14T20:11:01.489Z,82.94
2023-04-14T20:13:32.960Z,81.86
2023-04-14T20:16:02.465Z,82.37
2023-04-14T20:18:30.927Z,83.44
2023-04-14T20:21:00.142Z,82.05
2023-04-14T20:23:28.886Z,82.12
2023-04-14T20:25:57.758Z,83.23
2023-04-14T20:28:27.230Z,83.79
2023-04-14T20:30:56.570Z,84.54
2023-04-14T20:33:25.628Z,85.10
2023-04-14T20:35:54.948Z,84.29
2023-04-14T20:38:23.928Z,83.10
2023-04-14T20:40:53.224Z,84.54
2023-04-14T20:43:21.816Z,84.66
2023-04-14T20:45:50.618Z,84.02
2023-04-14T20:48:19.404Z,83.91
2023-04-14T20:50:50.415Z,83.97
2023-04-14T20:53:19.837Z,82.71
2023-04-14T20:55:48.780Z,82.93
2023-04-14T20:58:17.182Z,82.85
2023-04-14T21:00:45.588Z,83.69
2023-04-14T21:03:14.059Z,84.73
2023-04-14T21:05:43.143Z,84.25
2023-04-14T21:08:11.565Z,82.01
2023-04-14T21:11:14.563Z,82.95
2023-04-14T21:15:31.332Z,84.32
2023-04-14T21:16:17.098Z,85.00
2023-04-14T21:18:45.736Z,86.95
2023-04-14T21:21:14.425Z,87.08
2023-04-14T21:23:43.273Z,87.13
2023-04-14T21:26:12.818Z,88.23
2023-04-14T21:28:42.676Z,89.08
2023-04-14T21:31:12.085Z,88.53
2023-04-14T21:33:42.528Z,87.79
2023-04-14T21:36:11.620Z,86.56
2023-04-14T21:38:40.207Z,87.49
2023-04-14T21:41:11.693Z,89.34
2023-04-14T21:43:40.762Z,90.30
2023-04-14T21:46:09.729Z,90.48
2023-04-14T21:48:38.440Z,91.69
2023-04-14T21:51:06.804Z,92.06
2023-04-14T21:53:35.158Z,90.49
2023-04-14T21:56:10.037Z,90.61
2023-04-14T21:58:41.779Z,91.36
2023-04-14T22:01:13.287Z,93.17
2023-04-14T22:03:42.211Z,93.44
2023-04-14T22:06:13.358Z,92.24
2023-04-14T22:08:42.317Z,91.99
2023-04-14T22:11:10.817Z,92.40
2023-04-14T22:13:39.413Z,89.37
2023-04-14T22:16:08.361Z,89.91
2023-04-14T22:18:39.716Z,91.40
2023-04-14T22:21:11.529Z,93.23
2023-04-14T22:23:41.059Z,94.12
2023-04-14T22:26:10.030Z,93.20
2023-04-14T22:28:38.868Z,92.67
2023-04-14T22:31:07.840Z,91.94
2023-04-14T22:33:36.788Z,91.65
2023-04-14T22:36:07.134Z,88.88
2023-04-14T22:38:35.611Z,86.54
2023-04-14T22:41:03.993Z,89.48
2023-04-14T22:43:32.665Z,91.94
2023-04-14T22:46:01.026Z,93.12
2023-04-14T22:48:29.378Z,91.72
2023-04-14T22:50:57.752Z,91.61
2023-04-14T22:53:26.196Z,92.11
2023-04-14T22:55:54.572Z,91.47
2023-04-14T22:58:24.900Z,91.45
2023-04-14T23:00:53.566Z,92.40
2023-04-14T23:03:22.284Z,92.48
2023-04-14T23:05:53.339Z,92.00
2023-04-14T23:08:21.810Z,92.38
2023-04-14T23:10:50.146Z,92.82
2023-04-14T23:13:18.537Z,92.74
2023-04-14T23:15:47.234Z,92.08
2023-04-14T23:18:21.250Z,92.07
2023-04-14T23:20:49.640Z,92.31
2023-04-14T23:23:18.049Z,92.26
2023-04-14T23:25:46.640Z,92.20
2023-04-14T23:28:14.977Z,92.65
2023-04-14T23:30:43.945Z,91.90
2023-04-14T23:33:12.281Z,91.18
2023-04-14T23:35:41.183Z,92.13
2023-04-14T23:38:09.824Z,92.75
2023-04-14T23:40:38.356Z,92.83
2023-04-14T23:43:06.699Z,93.59
2023-04-14T23:45:38.038Z,95.03
2023-04-14T23:48:08.038Z,94.65
2023-04-14T23:51:00.342Z,94.40
2023-04-14T23:53:26.202Z,93.48
2023-04-14T23:55:54.585Z,94.02
2023-04-14T23:58:26.742Z,94.31
